Time;durP1;ratioP1;P1;durP2;ratioP2;P2;SDS_P1;SDS_P2;PMS_P1;PMS_P2;Temp;Humidity;BMP_temperature;BMP_pressure;BME280_temperature;BME280_humidity;BME280_pressure;Samples;Min_cycle;Max_cycle;Signal;HPM_P1;HPM_P2
2022/01/24 00:01:28;;;;;;;9.57;5.83;;;7.80;99.90;;;;;;5179541;27;20437;-57
2022/01/24 00:03:57;;;;;;;11.20;6.77;;;7.80;99.90;;;;;;5179342;27;20481;-58
2022/01/24 00:06:27;;;;;;;13.47;5.53;;;7.80;99.90;;;;;;5179575;27;20509;-57
2022/01/24 00:08:54;;;;;;;15.67;6.57;;;7.80;99.90;;;;;;5179249;27;20968;-57
2022/01/24 00:11:26;;;;;;;78.27;27.93;;;7.80;99.90;;;;;;5178771;27;20501;-52
2022/01/24 00:17:02;;;;;;;11.63;5.93;;;7.80;99.90;;;;;;5178922;27;20460;-58
2022/01/24 00:27:53;;;;;;;11.47;5.40;;;7.80;99.90;;;;;;5178116;27;20444;-53
2022/01/24 00:30:21;;;;;;;14.73;4.63;;;7.80;99.90;;;;;;5178459;27;20462;-54
2022/01/24 00:32:48;;;;;;;13.63;4.40;;;7.80;99.90;;;;;;5178137;27;20430;-58
2022/01/24 00:35:15;;;;;;;18.20;6.07;;;7.80;99.90;;;;;;5178389;27;20422;-57
2022/01/24 00:37:42;;;;;;;10.50;4.93;;;7.80;99.90;;;;;;5178522;27;20427;-55
2022/01/24 00:40:10;;;;;;;11.60;5.30;;;7.80;99.90;;;;;;5178211;27;20448;-56
2022/01/24 00:42:48;;;;;;;19.90;5.43;;;7.90;99.90;;;;;;5178125;27;20479;-58
2022/01/24 00:45:26;;;;;;;7.90;4.20;;;7.80;99.90;;;;;;5178527;27;20445;-57
2022/01/24 00:48:09;;;;;;;14.70;6.47;;;7.80;99.90;;;;;;5178279;27;20434;-58
2022/01/24 00:53:37;;;;;;;12.27;4.77;;;7.80;99.90;;;;;;5178222;27;20443;-57
2022/01/24 00:56:05;;;;;;;8.53;4.57;;;7.80;99.90;;;;;;5176676;27;20506;-57
2022/01/24 00:58:32;;;;;;;12.67;5.60;;;7.80;99.90;;;;;;5177020;27;20422;-54
2022/01/24 01:01:00;;;;;;;11.23;5.17;;;7.80;99.90;;;;;;5177825;27;20465;-57
2022/01/24 01:03:26;;;;;;;17.87;4.97;;;7.80;99.90;;;;;;5177011;27;20474;-53
2022/01/24 01:06:04;;;;;;;12.80;5.13;;;7.90;99.90;;;;;;5176959;27;20440;-55
2022/01/24 01:19:39;;;;;;;11.70;4.77;;;7.80;99.90;;;;;;5116521;27;20422;-52
2022/01/24 01:22:06;;;;;;;13.77;6.47;;;7.80;99.90;;;;;;5177527;27;20465;-56
2022/01/24 01:24:39;;;;;;;9.10;4.93;;;7.80;99.90;;;;;;5177197;27;20458;-55
2022/01/24 01:27:10;;;;;;;17.60;6.50;;;7.80;99.90;;;;;;5176754;27;20474;-55
2022/01/24 01:29:48;;;;;;;12.43;6.37;;;7.80;99.90;;;;;;5176867;27;20504;-55
2022/01/24 01:32:25;;;;;;;10.83;6.27;;;7.80;99.90;;;;;;5177046;27;20431;-58
2022/01/24 01:35:08;;;;;;;10.77;5.23;;;7.80;99.90;;;;;;5177167;27;20435;-50
2022/01/24 01:38:00;;;;;;;11.20;5.30;;;7.80;99.90;;;;;;5177022;27;20465;-57
2022/01/24 01:54:47;;;;;;;10.30;4.43;;;7.90;99.90;;;;;;5072506;28;20491;-56
2022/01/24 01:57:16;;;;;;;17.23;5.43;;;7.80;99.90;;;;;;5148541;27;20475;-56
2022/01/24 01:59:43;;;;;;;11.87;4.83;;;7.90;99.90;;;;;;5176445;27;20461;-56
2022/01/24 02:02:10;;;;;;;9.83;4.77;;;7.90;99.90;;;;;;5175963;27;20449;-54
2022/01/24 02:04:40;;;;;;;7.57;4.63;;;7.90;99.90;;;;;;5176433;27;20438;-51
2022/01/24 02:07:11;;;;;;;8.40;4.83;;;7.90;99.90;;;;;;5177007;27;20730;-56
2022/01/24 02:09:42;;;;;;;10.73;5.10;;;7.90;99.90;;;;;;5176250;27;20424;-56
2022/01/24 02:12:10;;;;;;;5.13;4.03;;;7.90;99.90;;;;;;5175942;27;20424;-55
2022/01/24 02:14:43;;;;;;;16.03;7.07;;;7.90;99.90;;;;;;5176136;27;20418;-55
2022/01/24 02:17:16;;;;;;;7.87;4.57;;;7.90;99.90;;;;;;5176042;27;20434;-54
2022/01/24 02:20:07;;;;;;;7.67;4.17;;;7.90;99.90;;;;;;5176263;27;20521;-53
2022/01/24 02:22:43;;;;;;;10.07;5.00;;;7.90;99.90;;;;;;5176677;27;20484;-55
2022/01/24 02:25:23;;;;;;;9.83;4.70;;;7.80;99.90;;;;;;5176063;27;20433;-53
2022/01/24 02:27:55;;;;;;;9.07;4.57;;;7.80;99.90;;;;;;5176944;27;20424;-56
2022/01/24 02:30:40;;;;;;;7.27;3.73;;;7.80;99.90;;;;;;5176788;27;20445;-56
2022/01/24 02:33:09;;;;;;;8.40;5.87;;;8.30;99.90;;;;;;5176527;27;20537;-54
2022/01/24 02:35:35;;;;;;;9.13;5.20;;;7.80;99.90;;;;;;5176229;27;20451;-56
2022/01/24 02:38:12;;;;;;;6.13;4.03;;;7.80;99.90;;;;;;5175957;27;20497;-55
2022/01/24 02:40:39;;;;;;;6.93;4.37;;;7.80;99.90;;;;;;5175614;27;20430;-57
2022/01/24 02:48:22;;;;;;;7.43;4.00;;;7.80;99.90;;;;;;5175998;27;20480;-56
2022/01/24 02:48:48;;;;;;;7.27;4.17;;;7.80;99.90;;;;;;5175772;27;20437;-56
2022/01/24 02:51:41;;;;;;;7.70;4.03;;;7.80;99.90;;;;;;5176532;27;20463;-54
2022/01/24 02:54:18;;;;;;;5.90;3.37;;;7.70;99.90;;;;;;5176360;27;20214;-57
2022/01/24 02:56:45;;;;;;;6.13;3.50;;;7.70;99.90;;;;;;5175813;27;20459;-52
2022/01/24 02:59:11;;;;;;;5.63;3.60;;;7.70;99.90;;;;;;5175694;27;20467;-56
2022/01/24 03:01:41;;;;;;;12.97;3.67;;;7.70;99.90;;;;;;5175966;27;20464;-55
2022/01/24 03:04:12;;;;;;;7.60;3.23;;;7.70;99.90;;;;;;5175718;27;20534;-57
2022/01/24 03:06:39;;;;;;;6.13;3.47;;;7.70;99.90;;;;;;5176096;27;20417;-56
2022/01/24 03:09:09;;;;;;;7.77;3.97;;;7.80;99.90;;;;;;5176919;27;20475;-54
2022/01/24 03:11:57;;;;;;;6.57;3.60;;;7.80;99.90;;;;;;5177322;27;20485;-57
2022/01/24 03:14:27;;;;;;;6.53;3.53;;;7.80;99.90;;;;;;5177238;27;20460;-57
2022/01/24 03:16:55;;;;;;;7.10;3.43;;;7.70;99.90;;;;;;5176829;27;20447;-55
2022/01/24 03:19:21;;;;;;;12.90;6.37;;;7.70;99.90;;;;;;5176851;27;20473;-57
2022/01/24 03:21:51;;;;;;;7.43;3.90;;;7.70;99.90;;;;;;5180712;27;20476;-60
2022/01/24 03:24:19;;;;;;;6.10;4.40;;;7.70;99.90;;;;;;5179987;27;20461;-57
2022/01/24 03:26:47;;;;;;;8.47;4.50;;;7.70;99.90;;;;;;5180175;27;20449;-55
2022/01/24 03:29:14;;;;;;;12.30;5.20;;;7.70;99.90;;;;;;5179606;27;20484;-57
2022/01/24 03:31:42;;;;;;;7.80;5.93;;;7.70;99.90;;;;;;5179537;27;20459;-57
2022/01/24 03:34:10;;;;;;;15.40;6.47;;;7.60;99.90;;;;;;5179292;27;20412;-58
2022/01/24 03:36:36;;;;;;;12.67;6.83;;;7.60;99.90;;;;;;5179221;27;20451;-60
2022/01/24 03:39:04;;;;;;;9.50;6.57;;;7.60;99.90;;;;;;5178676;27;20462;-59
2022/01/24 03:41:32;;;;;;;18.30;6.33;;;7.60;99.90;;;;;;5179044;27;20514;-57
2022/01/24 03:44:03;;;;;;;16.67;8.57;;;7.50;99.90;;;;;;5179391;27;20503;-57
2022/01/24 03:46:47;;;;;;;16.73;8.20;;;7.50;99.90;;;;;;5179067;27;20448;-55
2022/01/24 03:49:45;;;;;;;15.30;8.50;;;7.50;99.90;;;;;;5178541;27;20421;-58
2022/01/24 03:52:08;;;;;;;9.30;4.60;;;7.50;99.90;;;;;;5178334;27;20456;-57
2022/01/24 03:54:37;;;;;;;8.37;5.17;;;7.50;99.90;;;;;;5178856;27;20434;-57
2022/01/24 03:57:08;;;;;;;9.20;5.67;;;7.50;99.90;;;;;;5178599;27;20439;-58
2022/01/24 03:59:35;;;;;;;12.10;6.10;;;7.50;99.90;;;;;;5178696;27;20426;-53
2022/01/24 04:02:05;;;;;;;12.87;5.90;;;7.50;99.90;;;;;;5179293;27;20466;-56
2022/01/24 04:04:32;;;;;;;11.27;6.00;;;7.40;99.90;;;;;;5178718;27;20473;-55
2022/01/24 04:06:59;;;;;;;9.37;4.93;;;7.40;99.90;;;;;;5179145;27;20485;-57
2022/01/24 04:09:25;;;;;;;7.43;4.43;;;7.40;99.90;;;;;;5179137;27;20450;-57
2022/01/24 04:11:55;;;;;;;10.47;4.77;;;7.40;99.90;;;;;;5179156;27;20460;-52
2022/01/24 04:14:33;;;;;;;7.90;4.60;;;7.40;99.90;;;;;;5178348;27;20434;-56
2022/01/24 04:17:20;;;;;;;10.13;5.37;;;7.40;99.90;;;;;;5178613;27;20458;-55
2022/01/24 04:22:36;;;;;;;6.60;4.07;;;7.40;99.90;;;;;;5178374;27;20403;-56
2022/01/24 04:25:05;;;;;;;6.90;4.33;;;7.40;99.90;;;;;;5178872;27;20493;-58
2022/01/24 04:27:32;;;;;;;10.37;5.00;;;7.40;99.90;;;;;;5178605;27;20456;-54
2022/01/24 04:30:02;;;;;;;7.23;4.60;;;7.50;99.90;;;;;;5178361;27;20495;-57
2022/01/24 04:32:28;;;;;;;10.70;5.90;;;7.50;99.90;;;;;;5177383;27;20464;-55
2022/01/24 04:34:57;;;;;;;6.90;3.87;;;7.50;99.90;;;;;;5177825;27;20439;-55
2022/01/24 04:37:24;;;;;;;15.10;6.40;;;7.50;99.90;;;;;;5178268;27;20448;-57
2022/01/24 04:39:50;;;;;;;8.63;4.10;;;7.50;99.90;;;;;;5177868;27;20431;-57
2022/01/24 04:42:26;;;;;;;5.30;3.27;;;7.50;99.90;;;;;;5178016;27;20446;-59
2022/01/24 04:45:09;;;;;;;9.80;4.77;;;7.50;99.90;;;;;;5177516;27;20486;-56
2022/01/24 04:50:20;;;;;;;6.27;4.23;;;7.40;99.90;;;;;;5177954;27;20480;-55
2022/01/24 04:50:43;;;;;;;10.03;4.70;;;7.40;99.90;;;;;;5177885;27;20421;-54
2022/01/24 04:53:16;;;;;;;6.73;3.60;;;7.50;99.90;;;;;;5178211;27;20426;-55
2022/01/24 04:55:42;;;;;;;7.83;3.87;;;7.50;99.90;;;;;;5177931;27;20435;-57
2022/01/24 04:58:09;;;;;;;12.07;4.17;;;7.50;99.90;;;;;;5178093;27;20468;-54
2022/01/24 05:00:40;;;;;;;12.10;5.60;;;7.40;99.90;;;;;;5178206;27;20440;-58
2022/01/24 05:03:08;;;;;;;6.77;4.43;;;7.40;99.90;;;;;;5177829;27;20482;-56
2022/01/24 05:05:34;;;;;;;10.43;4.87;;;7.40;99.90;;;;;;5177551;27;20494;-56
2022/01/24 05:08:04;;;;;;;12.13;6.00;;;7.40;99.90;;;;;;5177439;27;20452;-56
2022/01/24 05:10:37;;;;;;;10.00;6.63;;;7.40;99.90;;;;;;5177605;27;20487;-58
2022/01/24 05:21:35;;;;;;;9.73;6.23;;;7.50;99.90;;;;;;5177818;27;20395;-56
2022/01/24 05:24:01;;;;;;;10.47;5.20;;;7.50;99.90;;;;;;5177240;27;20493;-50
2022/01/24 05:26:28;;;;;;;7.13;4.70;;;7.50;99.90;;;;;;5177558;27;20430;-52
2022/01/24 05:28:56;;;;;;;8.60;4.57;;;7.50;99.90;;;;;;5177429;27;20195;-55
2022/01/24 05:31:25;;;;;;;8.40;4.37;;;7.50;99.90;;;;;;5177647;27;20483;-58
2022/01/24 05:33:53;;;;;;;6.70;5.03;;;7.50;99.90;;;;;;5176997;27;20434;-56
2022/01/24 05:36:20;;;;;;;8.70;5.13;;;7.50;99.90;;;;;;5176881;27;20439;-53
2022/01/24 05:38:47;;;;;;;10.73;6.30;;;7.40;99.90;;;;;;5176722;27;20470;-56
2022/01/24 05:41:13;;;;;;;7.60;4.33;;;7.50;99.90;;;;;;5176293;27;20461;-56
2022/01/24 05:43:42;;;;;;;8.17;5.20;;;7.40;99.90;;;;;;5175272;27;20476;-56
2022/01/24 05:46:10;;;;;;;13.33;4.80;;;7.40;99.90;;;;;;5176749;27;20435;-57
2022/01/24 05:48:37;;;;;;;7.13;3.57;;;7.40;99.90;;;;;;5176745;27;20436;-53
2022/01/24 05:51:05;;;;;;;10.43;4.40;;;7.40;99.90;;;;;;5176371;27;20493;-55
2022/01/24 05:53:31;;;;;;;6.33;4.20;;;7.40;99.90;;;;;;5176246;27;20436;-53
2022/01/24 05:56:00;;;;;;;9.67;4.80;;;7.40;99.90;;;;;;5175953;27;20465;-56
2022/01/24 05:58:27;;;;;;;5.63;3.97;;;7.40;99.90;;;;;;5176594;27;20454;-57
2022/01/24 06:00:55;;;;;;;8.00;4.27;;;7.40;99.90;;;;;;5176149;27;20449;-56
2022/01/24 06:03:22;;;;;;;8.40;5.47;;;7.30;99.90;;;;;;5176237;27;20436;-55
2022/01/24 06:05:49;;;;;;;7.33;4.57;;;7.30;99.90;;;;;;5176170;27;20442;-54
2022/01/24 06:08:17;;;;;;;9.40;5.13;;;7.20;99.90;;;;;;5176204;27;20465;-58
2022/01/24 06:10:47;;;;;;;7.70;3.80;;;7.20;99.90;;;;;;5176049;27;20455;-55
2022/01/24 06:13:14;;;;;;;8.63;4.57;;;7.20;99.90;;;;;;5176177;27;20419;-56
2022/01/24 06:15:42;;;;;;;8.77;4.73;;;7.20;99.90;;;;;;5176056;27;20443;-56
2022/01/24 06:18:09;;;;;;;7.20;4.57;;;7.20;99.90;;;;;;5175732;27;20492;-54
2022/01/24 06:20:35;;;;;;;6.97;4.37;;;7.10;99.90;;;;;;5176201;27;20435;-55
2022/01/24 06:23:02;;;;;;;9.40;4.47;;;7.20;99.90;;;;;;5176167;27;20430;-56
2022/01/24 06:25:30;;;;;;;7.80;4.10;;;7.10;99.90;;;;;;5176192;27;20473;-57
2022/01/24 06:27:57;;;;;;;6.43;5.10;;;7.10;99.90;;;;;;5175768;27;20443;-54
2022/01/24 06:30:24;;;;;;;9.00;5.20;;;7.10;99.90;;;;;;5175986;27;20767;-55
2022/01/24 06:32:50;;;;;;;7.57;4.00;;;7.10;99.90;;;;;;5175871;27;20485;-56
2022/01/24 06:35:17;;;;;;;7.50;3.87;;;7.00;99.90;;;;;;5175834;27;20467;-55
2022/01/24 06:37:44;;;;;;;8.57;5.10;;;6.90;99.90;;;;;;5175008;27;20457;-56
2022/01/24 06:40:12;;;;;;;6.83;4.13;;;6.90;99.90;;;;;;5175287;27;20520;-56
2022/01/24 06:42:41;;;;;;;6.70;4.83;;;6.90;99.90;;;;;;5175227;27;20490;-56
2022/01/24 06:45:10;;;;;;;10.30;3.77;;;6.90;99.90;;;;;;5175438;27;20481;-57
2022/01/24 06:47:37;;;;;;;6.57;4.33;;;6.90;99.90;;;;;;5175585;27;20435;-56
2022/01/24 06:50:05;;;;;;;14.07;5.93;;;6.90;99.90;;;;;;5175451;27;20464;-55
2022/01/24 06:52:31;;;;;;;9.93;6.10;;;7.00;99.90;;;;;;5168132;27;20437;-55
2022/01/24 06:54:58;;;;;;;5.23;3.73;;;7.00;99.90;;;;;;5162648;27;20439;-55
2022/01/24 06:57:28;;;;;;;10.63;4.83;;;7.00;99.90;;;;;;5163460;27;20474;-54
2022/01/24 06:59:58;;;;;;;6.33;3.53;;;7.10;99.90;;;;;;5163841;27;20519;-54
2022/01/24 07:02:24;;;;;;;8.20;3.77;;;7.10;99.90;;;;;;5163775;27;20455;-56
2022/01/24 07:04:51;;;;;;;6.27;3.93;;;7.10;99.90;;;;;;5163229;27;20483;-53
2022/01/24 07:07:18;;;;;;;10.23;5.50;;;7.10;99.90;;;;;;5163781;27;20451;-55
2022/01/24 07:09:45;;;;;;;9.70;5.63;;;7.20;99.90;;;;;;5166187;27;20512;-54
2022/01/24 07:12:12;;;;;;;11.60;4.43;;;7.20;99.90;;;;;;5165962;27;20542;-54
2022/01/24 07:14:42;;;;;;;6.77;4.30;;;7.20;99.90;;;;;;5163313;27;20468;-56
2022/01/24 07:17:17;;;;;;;12.23;4.90;;;7.20;99.90;;;;;;5163724;27;20474;-52
2022/01/24 07:19:44;;;;;;;12.13;5.40;;;7.20;99.90;;;;;;5162824;27;20866;-56
2022/01/24 07:22:11;;;;;;;6.43;4.17;;;7.20;99.90;;;;;;5163007;27;20443;-55
2022/01/24 07:24:38;;;;;;;6.40;4.53;;;7.20;99.90;;;;;;5163316;27;20482;-53
2022/01/24 07:27:05;;;;;;;9.63;5.10;;;7.20;99.90;;;;;;5163262;27;20892;-54
2022/01/24 07:29:32;;;;;;;7.90;4.37;;;7.30;99.90;;;;;;5163164;27;20448;-57
2022/01/24 07:31:59;;;;;;;7.30;3.60;;;7.30;99.90;;;;;;5163134;27;20496;-53
2022/01/24 07:34:29;;;;;;;6.53;3.50;;;7.30;99.90;;;;;;5162833;27;20644;-56
2022/01/24 07:36:57;;;;;;;4.60;3.20;;;7.30;99.90;;;;;;5114206;27;21020;-56
2022/01/24 07:39:26;;;;;;;6.50;3.80;;;7.30;99.90;;;;;;5057993;28;20464;-57
2022/01/24 07:41:52;;;;;;;6.23;2.97;;;7.30;99.90;;;;;;5057896;28;20454;-55
2022/01/24 07:44:21;;;;;;;8.67;4.50;;;7.30;99.90;;;;;;5057575;27;20481;-57
2022/01/24 07:46:48;;;;;;;5.17;2.20;;;7.20;99.90;;;;;;5043495;28;20465;-56
2022/01/24 07:49:15;;;;;;;4.87;3.43;;;7.30;99.90;;;;;;5057055;28;20907;-56
2022/01/24 07:51:43;;;;;;;7.87;4.30;;;7.20;99.90;;;;;;5066999;28;20462;-54
2022/01/24 07:54:10;;;;;;;6.47;3.70;;;7.70;99.90;;;;;;5083452;27;20445;-52
2022/01/24 07:56:37;;;;;;;12.53;3.77;;;7.90;99.90;;;;;;5104144;27;20470;-55
2022/01/24 07:59:04;;;;;;;5.17;3.17;;;7.70;99.90;;;;;;5069428;28;20446;-52
2022/01/24 08:01:31;;;;;;;5.73;2.90;;;7.70;99.90;;;;;;5070005;28;20447;-57
2022/01/24 08:03:57;;;;;;;4.90;3.40;;;7.70;99.90;;;;;;5069684;28;20459;-55
2022/01/24 08:06:24;;;;;;;6.33;3.70;;;7.70;99.90;;;;;;5071100;28;20442;-55
2022/01/24 08:08:52;;;;;;;10.20;4.63;;;7.70;99.90;;;;;;5069607;28;20452;-55
2022/01/24 08:11:19;;;;;;;9.03;5.37;;;7.70;99.90;;;;;;5069454;28;20448;-55
2022/01/24 08:13:46;;;;;;;6.50;3.60;;;7.70;99.90;;;;;;5070333;28;20421;-57
2022/01/24 08:16:13;;;;;;;9.63;4.10;;;7.70;99.90;;;;;;5068826;28;20500;-54
2022/01/24 08:18:40;;;;;;;9.40;3.80;;;7.60;99.90;;;;;;5071294;28;20462;-54
2022/01/24 08:21:07;;;;;;;9.50;3.83;;;7.70;99.90;;;;;;5068362;28;20526;-56
2022/01/24 08:23:34;;;;;;;5.47;3.63;;;7.70;99.90;;;;;;5068672;28;20544;-55
2022/01/24 08:26:02;;;;;;;4.83;3.50;;;7.70;99.90;;;;;;5068063;28;20541;-56
2022/01/24 08:28:29;;;;;;;7.93;3.40;;;7.70;99.90;;;;;;5068320;28;20473;-49
2022/01/24 08:30:56;;;;;;;5.87;3.00;;;7.60;99.90;;;;;;5067441;28;20440;-51
2022/01/24 08:33:23;;;;;;;6.07;3.27;;;7.60;99.90;;;;;;5068246;28;20540;-54
2022/01/24 08:35:51;;;;;;;6.33;3.37;;;7.70;99.90;;;;;;5067527;28;20518;-53
2022/01/24 08:38:18;;;;;;;5.23;2.50;;;7.70;99.90;;;;;;5067942;28;20521;-56
2022/01/24 08:40:47;;;;;;;4.20;2.57;;;7.60;99.90;;;;;;5067971;28;20498;-52
2022/01/24 08:43:23;;;;;;;5.27;2.73;;;7.60;99.90;;;;;;5067688;28;20490;-55
2022/01/24 08:45:52;;;;;;;7.97;3.23;;;7.60;99.90;;;;;;5067855;28;20475;-54
2022/01/24 08:48:21;;;;;;;5.23;2.63;;;7.60;99.90;;;;;;5068250;28;20499;-55
2022/01/24 08:50:50;;;;;;;5.50;3.50;;;7.60;99.90;;;;;;5068335;28;20493;-52
2022/01/24 08:53:17;;;;;;;4.30;2.10;;;7.60;99.90;;;;;;5067932;28;20437;-54
2022/01/24 08:55:43;;;;;;;7.50;3.07;;;7.70;99.90;;;;;;5066489;28;20555;-57
2022/01/24 08:58:14;;;;;;;7.30;3.77;;;7.80;99.90;;;;;;5067886;28;20476;-55
2022/01/24 09:00:43;;;;;;;5.37;2.77;;;7.80;99.90;;;;;;5067376;28;20499;-54
2022/01/24 09:03:11;;;;;;;5.13;2.40;;;7.80;99.90;;;;;;5066909;28;20476;-55
2022/01/24 09:05:38;;;;;;;4.77;2.47;;;7.80;99.90;;;;;;5065941;28;20496;-57
2022/01/24 09:08:06;;;;;;;4.30;2.27;;;7.90;99.90;;;;;;5066717;28;20482;-54
2022/01/24 09:10:33;;;;;;;9.50;4.03;;;7.90;99.90;;;;;;5066470;27;20475;-52
2022/01/24 09:13:01;;;;;;;7.40;3.40;;;7.90;99.90;;;;;;5067896;28;20868;-53
2022/01/24 09:15:28;;;;;;;7.30;3.57;;;8.00;99.90;;;;;;5069123;28;20495;-57
2022/01/24 09:17:56;;;;;;;6.60;2.70;;;8.00;99.90;;;;;;5060149;28;20486;-54
2022/01/24 09:20:25;;;;;;;7.27;2.90;;;8.10;99.90;;;;;;5060186;28;20466;-50
2022/01/24 09:22:54;;;;;;;5.43;2.60;;;8.20;99.90;;;;;;5059287;28;20478;-54
2022/01/24 09:25:23;;;;;;;3.43;2.43;;;8.20;99.90;;;;;;5059248;28;20474;-51
2022/01/24 09:27:50;;;;;;;4.97;3.03;;;8.30;99.90;;;;;;5060107;28;20468;-53
2022/01/24 09:30:20;;;;;;;5.53;3.07;;;8.40;99.90;;;;;;5060250;28;20488;-51
2022/01/24 09:32:47;;;;;;;22.33;4.17;;;8.50;99.90;;;;;;5059227;28;20446;-52
2022/01/24 09:35:17;;;;;;;3.63;2.53;;;8.50;99.90;;;;;;5058478;28;20483;-51
2022/01/24 09:37:46;;;;;;;4.77;2.30;;;8.60;99.90;;;;;;5058759;28;20505;-54
2022/01/24 09:40:15;;;;;;;6.80;3.43;;;8.50;99.90;;;;;;5059178;28;20459;-55
2022/01/24 09:42:43;;;;;;;5.23;2.73;;;8.50;99.90;;;;;;5057673;28;20474;-53
2022/01/24 09:45:11;;;;;;;3.80;2.20;;;8.50;99.90;;;;;;5058079;28;20569;-57
2022/01/24 09:47:39;;;;;;;5.20;3.77;;;8.60;99.90;;;;;;5058255;28;20901;-55
2022/01/24 09:50:08;;;;;;;5.87;3.27;;;8.60;99.90;;;;;;5057496;28;20475;-54
2022/01/24 09:52:39;;;;;;;3.50;2.53;;;8.70;99.90;;;;;;5057478;28;20522;-53
2022/01/24 09:55:07;;;;;;;3.40;2.77;;;8.70;99.90;;;;;;5056898;28;20443;-50
2022/01/24 09:57:34;;;;;;;3.30;1.67;;;8.60;99.90;;;;;;5058609;28;20446;-55
2022/01/24 10:00:01;;;;;;;4.10;2.60;;;8.60;99.90;;;;;;5058069;28;20505;-54
2022/01/24 10:02:28;;;;;;;2.47;2.10;;;8.70;99.90;;;;;;5058428;28;20501;-54
2022/01/24 10:05:12;;;;;;;4.23;3.00;;;8.70;99.90;;;;;;5057622;28;20477;-55
2022/01/24 10:07:49;;;;;;;3.30;2.97;;;8.90;99.90;;;;;;5057800;28;20427;-54
2022/01/24 10:10:25;;;;;;;4.77;2.70;;;9.00;99.90;;;;;;5059113;28;20507;-54
2022/01/24 10:18:34;;;;;;;4.83;2.23;;;8.90;99.90;;;;;;5058819;28;20415;-54
2022/01/24 10:21:01;;;;;;;4.37;2.77;;;8.80;99.90;;;;;;5058378;28;20450;-55
2022/01/24 10:23:30;;;;;;;4.43;2.40;;;8.60;99.90;;;;;;5058793;28;20477;-51
2022/01/24 10:26:02;;;;;;;5.80;3.00;;;8.60;99.90;;;;;;5058719;28;20540;-52
2022/01/24 10:28:31;;;;;;;6.57;2.83;;;8.60;99.90;;;;;;5057426;28;20541;-53
2022/01/24 10:31:13;;;;;;;5.50;2.97;;;8.60;99.90;;;;;;5057988;28;20474;-53
2022/01/24 10:34:04;;;;;;;6.50;3.20;;;8.40;99.90;;;;;;5057876;28;20438;-55
2022/01/24 10:36:37;;;;;;;4.43;2.10;;;8.40;99.90;;;;;;5057741;28;20552;-53
2022/01/24 10:39:14;;;;;;;7.17;3.40;;;8.30;99.90;;;;;;5057586;28;20451;-48
2022/01/24 10:41:56;;;;;;;10.17;3.33;;;8.30;99.90;;;;;;5057045;28;20502;-53
2022/01/24 10:44:31;;;;;;;2.63;1.60;;;8.30;99.90;;;;;;5039733;28;20444;-53
2022/01/24 10:47:13;;;;;;;6.00;1.80;;;8.10;99.90;;;;;;5039986;28;20483;-50
2022/01/24 10:49:41;;;;;;;8.30;2.50;;;8.00;99.90;;;;;;5039406;28;20835;-56
2022/01/24 10:52:13;;;;;;;2.37;1.33;;;7.90;99.90;;;;;;5038844;28;20783;-51
2022/01/24 10:54:41;;;;;;;3.47;1.60;;;7.90;99.90;;;;;;5038664;28;20450;-54
2022/01/24 10:57:08;;;;;;;7.30;1.80;;;7.90;99.90;;;;;;5038990;28;20480;-52
2022/01/24 10:59:37;;;;;;;3.20;1.77;;;7.80;99.90;;;;;;5039401;28;20790;-52
2022/01/24 11:02:06;;;;;;;3.80;2.07;;;7.90;99.90;;;;;;5039373;28;20467;-53
2022/01/24 11:04:34;;;;;;;4.10;2.10;;;8.00;99.90;;;;;;5038421;28;20463;-56
2022/01/24 11:07:04;;;;;;;4.07;1.90;;;8.10;99.90;;;;;;5037213;28;20541;-55
2022/01/24 11:09:32;;;;;;;4.07;1.53;;;8.60;99.90;;;;;;5037036;28;20484;-52
2022/01/24 11:12:06;;;;;;;2.33;1.40;;;9.00;99.90;;;;;;5038078;28;20455;-54
2022/01/24 11:14:35;;;;;;;4.57;2.27;;;9.10;99.90;;;;;;5037976;28;20450;-56
2022/01/24 11:17:03;;;;;;;5.00;2.70;;;9.20;99.90;;;;;;5037812;28;20488;-54
2022/01/24 11:19:40;;;;;;;2.70;1.87;;;9.10;99.90;;;;;;5038184;28;20504;-56
2022/01/24 11:22:18;;;;;;;2.70;1.53;;;9.00;99.90;;;;;;5038785;28;20437;-55
2022/01/24 11:24:52;;;;;;;2.90;2.03;;;8.80;99.90;;;;;;5031882;28;20430;-54
2022/01/24 11:27:21;;;;;;;3.30;2.10;;;8.60;99.90;;;;;;5030096;28;20423;-56
2022/01/24 11:29:50;;;;;;;3.20;1.87;;;8.40;99.90;;;;;;5030160;28;20468;-53
2022/01/24 11:32:23;;;;;;;2.00;1.73;;;8.20;99.90;;;;;;5030244;28;20456;-52
2022/01/24 11:34:51;;;;;;;2.33;1.57;;;8.00;99.90;;;;;;5030881;28;20439;-56
2022/01/24 11:37:34;;;;;;;2.27;1.60;;;7.90;99.90;;;;;;5030257;28;20772;-53
2022/01/24 11:40:02;;;;;;;2.43;2.23;;;7.90;99.90;;;;;;5030348;28;20450;-54
2022/01/24 11:42:34;;;;;;;3.10;1.70;;;7.80;99.90;;;;;;5032756;28;20480;-54
2022/01/24 11:45:05;;;;;;;2.83;2.00;;;7.80;99.90;;;;;;5033073;28;20446;-50
2022/01/24 11:47:32;;;;;;;4.10;1.90;;;7.80;99.90;;;;;;5033420;28;20903;-54
2022/01/24 11:50:00;;;;;;;5.20;1.93;;;7.70;99.90;;;;;;5033012;28;20810;-55
2022/01/24 11:52:32;;;;;;;2.73;1.63;;;7.80;99.90;;;;;;5033423;28;20471;-53
2022/01/24 11:55:14;;;;;;;1.83;1.20;;;7.70;99.90;;;;;;5033239;28;20446;-53
2022/01/24 11:57:47;;;;;;;3.17;1.73;;;7.70;99.90;;;;;;5033203;28;20519;-55
2022/01/24 12:00:21;;;;;;;3.53;2.20;;;7.60;99.90;;;;;;5033347;28;20469;-53
2022/01/24 12:02:50;;;;;;;2.30;1.40;;;7.60;99.90;;;;;;5033351;28;20554;-55
2022/01/24 12:05:20;;;;;;;2.03;1.63;;;7.60;99.90;;;;;;5033713;28;20449;-55
2022/01/24 12:07:50;;;;;;;2.13;1.30;;;7.50;99.90;;;;;;5033345;28;20499;-52
2022/01/24 12:10:41;;;;;;;1.67;1.47;;;7.50;99.90;;;;;;5032650;28;20933;-55
2022/01/24 12:13:17;;;;;;;3.60;1.50;;;7.50;99.90;;;;;;5032960;28;20741;-55
2022/01/24 12:16:05;;;;;;;4.33;1.87;;;7.60;99.90;;;;;;5032900;28;20431;-55
2022/01/24 12:18:58;;;;;;;4.03;2.90;;;7.50;99.90;;;;;;5033119;28;20458;-56
2022/01/24 12:21:27;;;;;;;3.20;1.90;;;7.40;99.90;;;;;;5032864;28;20426;-57
2022/01/24 12:23:55;;;;;;;5.57;2.57;;;7.40;99.90;;;;;;5032891;28;20465;-56
2022/01/24 12:26:33;;;;;;;2.90;2.00;;;7.40;99.90;;;;;;5032502;28;20488;-52
2022/01/24 12:29:04;;;;;;;4.10;2.37;;;7.40;99.90;;;;;;5032701;28;20995;-53
2022/01/24 12:31:35;;;;;;;5.97;1.93;;;7.50;99.90;;;;;;5032794;28;20435;-52
2022/01/24 12:34:08;;;;;;;6.00;2.63;;;7.50;99.90;;;;;;5032820;28;20718;-52
2022/01/24 12:37:22;;;;;;;3.83;2.47;;;7.50;99.90;;;;;;5032678;28;20774;-54
2022/01/24 12:39:58;;;;;;;3.10;1.77;;;7.50;99.90;;;;;;5033014;28;20528;-58
2022/01/24 12:48:09;;;;;;;6.47;3.57;;;7.50;99.90;;;;;;5032460;28;20418;-53
2022/01/24 12:50:37;;;;;;;3.70;2.73;;;7.40;99.90;;;;;;5032281;28;20522;-55
2022/01/24 12:53:13;;;;;;;5.70;2.13;;;7.40;99.90;;;;;;5032032;28;20448;-54
2022/01/24 12:55:41;;;;;;;2.60;1.73;;;7.30;99.90;;;;;;5032290;28;20470;-53
2022/01/24 12:58:09;;;;;;;2.87;2.10;;;7.20;99.90;;;;;;5032326;28;20458;-57
2022/01/24 13:00:44;;;;;;;3.13;1.70;;;7.20;99.90;;;;;;5032294;28;20455;-61
2022/01/24 13:03:12;;;;;;;4.70;3.37;;;7.10;99.90;;;;;;5032366;28;20462;-52
2022/01/24 13:05:39;;;;;;;3.43;1.93;;;7.10;99.90;;;;;;5032333;28;20776;-55
2022/01/24 13:08:07;;;;;;;8.93;1.67;;;7.10;99.90;;;;;;5032887;28;20440;-53
2022/01/24 13:10:34;;;;;;;3.33;2.40;;;7.10;99.90;;;;;;5032571;28;20500;-53
2022/01/24 13:13:06;;;;;;;3.90;3.03;;;7.10;99.90;;;;;;5032209;28;20441;-50
2022/01/24 13:21:24;;;;;;;2.33;1.70;;;7.10;99.90;;;;;;5054627;28;20603;-55
2022/01/24 13:23:55;;;;;;;4.50;2.07;;;7.00;99.90;;;;;;5026357;28;20494;-57
2022/01/24 13:26:26;;;;;;;3.80;2.27;;;7.00;99.90;;;;;;5055290;28;20475;-57
2022/01/24 13:29:01;;;;;;;6.73;2.63;;;7.00;99.90;;;;;;5055099;28;20468;-57
2022/01/24 13:31:28;;;;;;;7.23;3.23;;;7.00;99.90;;;;;;5055206;28;20429;-57
2022/01/24 13:33:58;;;;;;;16.37;6.87;;;7.00;99.90;;;;;;5055368;28;20495;-55
2022/01/24 13:36:25;;;;;;;20.47;10.47;;;7.00;99.90;;;;;;5055879;28;20892;-55
2022/01/24 13:38:52;;;;;;;7.23;3.80;;;7.10;99.90;;;;;;5056149;28;20526;-52
2022/01/24 13:41:23;;;;;;;5.67;3.37;;;7.10;99.90;;;;;;5056399;28;20464;-57
2022/01/24 13:43:53;;;;;;;5.47;3.63;;;7.20;99.90;;;;;;5054974;28;20464;-56
2022/01/24 13:46:22;;;;;;;5.00;2.73;;;7.20;99.90;;;;;;5055546;28;20570;-54
2022/01/24 13:48:51;;;;;;;4.70;2.43;;;7.10;99.90;;;;;;5055161;28;20507;-59
2022/01/24 13:51:21;;;;;;;4.13;2.30;;;7.10;99.90;;;;;;5054590;28;20448;-57
2022/01/24 13:53:55;;;;;;;5.77;2.20;;;7.10;99.90;;;;;;5055568;28;20512;-61
2022/01/24 13:56:29;;;;;;;6.37;1.33;;;7.00;99.90;;;;;;5055957;28;20484;-51
2022/01/24 13:59:01;;;;;;;4.90;2.40;;;7.00;99.90;;;;;;5055049;28;20490;-55
2022/01/24 14:01:31;;;;;;;3.27;1.83;;;7.00;99.90;;;;;;5054677;28;20916;-57
2022/01/24 14:04:00;;;;;;;2.97;1.80;;;7.10;99.90;;;;;;5054206;28;20485;-57
2022/01/24 14:06:32;;;;;;;3.10;1.83;;;7.00;99.90;;;;;;5054462;28;20476;-57
2022/01/24 14:09:12;;;;;;;4.27;2.90;;;7.10;99.90;;;;;;5054205;28;20925;-56
2022/01/24 14:11:44;;;;;;;4.67;2.13;;;7.10;99.90;;;;;;5054917;28;20439;-56
2022/01/24 14:14:15;;;;;;;6.27;3.50;;;7.10;99.90;;;;;;5054875;28;20443;-56
2022/01/24 14:16:50;;;;;;;6.53;2.30;;;7.10;99.90;;;;;;5054946;28;20436;-58
2022/01/24 14:19:17;;;;;;;3.90;2.13;;;7.10;99.90;;;;;;5055050;28;20489;-53
2022/01/24 14:22:05;;;;;;;7.20;3.37;;;7.00;99.90;;;;;;5055116;28;20866;-56
2022/01/24 14:24:47;;;;;;;5.47;2.80;;;6.90;99.90;;;;;;5045996;28;20829;-54